Time;durP1;ratioP1;P1;durP2;ratioP2;P2;SDS_P1;SDS_P2;PMS_P1;PMS_P2;Temp;Humidity;BMP_temperature;BMP_pressure;BME280_temperature;BME280_humidity;BME280_pressure;Samples;Min_cycle;Max_cycle;Signal;HPM_P1;HPM_P2
2024/04/22 00:01:42;;;;;;;8.07;2.70;;;;;;;-145.63;100.00;61273.97;4973557;28;20061;-74
2024/04/22 00:04:08;;;;;;;6.15;2.50;;;;;;;-145.63;100.00;61273.97;4977269;28;20039;-72
2024/04/22 00:06:34;;;;;;;5.47;3.00;;;;;;;-145.63;100.00;61273.97;4978225;28;20030;-72
2024/04/22 00:08:59;;;;;;;12.20;2.85;;;;;;;-145.63;100.00;61273.97;4979257;28;20085;-72
2024/04/22 00:11:25;;;;;;;6.05;2.80;;;;;;;-145.63;100.00;61273.97;4983599;28;20037;-73
2024/04/22 00:13:50;;;;;;;5.68;2.70;;;;;;;-145.63;100.00;61273.97;4982781;28;20141;-71
2024/04/22 00:16:16;;;;;;;6.85;2.83;;;;;;;-145.63;100.00;61273.97;4979914;28;20041;-72
2024/04/22 00:18:42;;;;;;;6.53;2.78;;;;;;;-145.63;100.00;61273.97;4981162;28;20371;-72
2024/04/22 00:21:07;;;;;;;4.18;2.30;;;;;;;-145.63;100.00;61273.97;4987641;28;20038;-72
2024/04/22 00:23:33;;;;;;;5.72;2.60;;;;;;;-145.63;100.00;61273.97;4979382;28;20086;-72
2024/04/22 00:26:00;;;;;;;5.47;2.70;;;;;;;-145.63;100.00;61273.97;4983648;28;20058;-72
2024/04/22 00:28:26;;;;;;;4.60;2.55;;;;;;;-145.63;100.00;61273.97;4985874;28;20101;-71
2024/04/22 00:30:52;;;;;;;3.55;2.60;;;;;;;-145.63;100.00;61273.97;4982970;28;20134;-72
2024/04/22 00:33:17;;;;;;;5.72;2.75;;;;;;;-145.63;100.00;61273.97;4988137;28;20096;-72
2024/04/22 00:35:54;;;;;;;5.30;2.58;;;;;;;-145.63;100.00;61273.97;4983573;28;20077;-73
2024/04/22 00:38:20;;;;;;;7.22;2.80;;;;;;;-145.63;100.00;61273.97;4988707;28;20026;-73
2024/04/22 00:40:45;;;;;;;6.55;2.58;;;;;;;-145.63;100.00;61273.97;4986696;28;20035;-72
2024/04/22 00:43:11;;;;;;;5.22;2.65;;;;;;;-145.63;100.00;61273.97;4983693;28;20646;-72
2024/04/22 00:45:37;;;;;;;4.68;2.50;;;;;;;-145.63;100.00;61273.97;4988368;28;20031;-71
2024/04/22 00:48:03;;;;;;;4.00;2.47;;;;;;;-145.63;100.00;61273.97;4986921;28;20117;-70
2024/04/22 00:50:30;;;;;;;8.73;2.78;;;;;;;-145.63;100.00;61273.97;4984946;28;20143;-71
2024/04/22 00:52:58;;;;;;;7.72;2.60;;;;;;;-145.63;100.00;61273.97;4977274;28;20031;-69
2024/04/22 00:55:25;;;;;;;11.52;2.88;;;;;;;-145.63;100.00;61273.97;4981498;28;20162;-71
2024/04/22 00:57:56;;;;;;;6.78;2.72;;;;;;;-145.63;100.00;61273.97;4978511;28;20137;-71
2024/04/22 01:00:21;;;;;;;4.82;2.53;;;;;;;-145.63;100.00;61273.97;4979273;28;20050;-70
2024/04/22 01:02:48;;;;;;;5.47;2.78;;;;;;;-145.63;100.00;61273.97;4989746;28;20030;-69
2024/04/22 01:05:14;;;;;;;9.63;3.08;;;;;;;-145.63;100.00;61273.97;4983333;28;20036;-69
2024/04/22 01:07:40;;;;;;;7.90;2.58;;;;;;;-145.63;100.00;61273.97;4979981;28;20367;-72
2024/04/22 01:10:06;;;;;;;3.42;2.33;;;;;;;-145.63;100.00;61273.97;5002091;28;20050;-71
2024/04/22 01:12:32;;;;;;;5.30;2.50;;;;;;;-145.63;100.00;61273.97;4984213;28;20018;-71
2024/04/22 01:14:58;;;;;;;4.45;2.53;;;;;;;-145.63;100.00;61273.97;4987286;28;20057;-71
2024/04/22 01:17:34;;;;;;;6.30;2.70;;;;;;;-145.63;100.00;61273.97;4983353;28;20160;-69
2024/04/22 01:20:01;;;;;;;8.18;2.88;;;;;;;-145.63;100.00;61273.97;4981463;28;20113;-68
2024/04/22 01:22:26;;;;;;;5.05;2.58;;;;;;;-145.63;100.00;61273.97;4975007;28;20037;-69
2024/04/22 01:24:53;;;;;;;6.03;2.63;;;;;;;-145.63;100.00;61273.97;4983967;28;20031;-71
2024/04/22 01:27:20;;;;;;;5.93;3.00;;;;;;;-145.63;100.00;61273.97;4984935;28;20097;-70
2024/04/22 01:29:46;;;;;;;4.72;2.80;;;;;;;-145.63;100.00;61273.97;5002726;28;20054;-67
2024/04/22 01:32:12;;;;;;;6.60;2.78;;;;;;;-145.63;100.00;61273.97;4981912;28;20447;-73
2024/04/22 01:34:37;;;;;;;6.30;2.80;;;;;;;-145.63;100.00;61273.97;4985459;28;20034;-73
2024/04/22 01:37:03;;;;;;;6.82;3.38;;;;;;;-145.63;100.00;61273.97;4976313;28;20023;-68
2024/04/22 01:39:29;;;;;;;8.68;2.95;;;;;;;-145.63;100.00;61273.97;4979105;28;20055;-67
2024/04/22 01:41:55;;;;;;;6.28;3.10;;;;;;;-145.63;100.00;61273.97;4983827;28;20034;-70
2024/04/22 01:44:21;;;;;;;6.90;3.15;;;;;;;-145.63;100.00;61273.97;4984060;28;20157;-69
2024/04/22 01:46:47;;;;;;;12.32;3.20;;;;;;;-145.63;100.00;61273.97;4989655;28;20053;-68
2024/04/22 01:49:12;;;;;;;10.13;3.15;;;;;;;-145.63;100.00;61273.97;4990518;28;20451;-66
2024/04/22 01:51:39;;;;;;;8.65;3.00;;;;;;;-145.63;100.00;61273.97;4982948;28;20065;-68
2024/04/22 01:54:05;;;;;;;7.88;3.33;;;;;;;-145.63;100.00;61273.97;4983532;28;20049;-66
2024/04/22 01:56:31;;;;;;;4.60;2.67;;;;;;;-145.63;100.00;61273.97;4981030;28;20682;-67
2024/04/22 01:58:57;;;;;;;9.02;3.28;;;;;;;-145.63;100.00;61273.97;4982595;28;20430;-64
2024/04/22 02:01:23;;;;;;;6.57;3.08;;;;;;;-145.63;100.00;61273.97;4983968;28;20034;-68
2024/04/22 02:03:49;;;;;;;4.32;2.88;;;;;;;-145.63;100.00;61273.97;4980770;28;20472;-66
2024/04/22 02:06:14;;;;;;;6.68;3.30;;;;;;;-145.63;100.00;61273.97;4982965;28;20078;-66
2024/04/22 02:08:40;;;;;;;6.65;3.17;;;;;;;-145.63;100.00;61273.97;4973673;28;20029;-67
2024/04/22 02:11:06;;;;;;;13.30;3.63;;;;;;;-145.63;100.00;61273.97;4979562;28;20037;-69
2024/04/22 02:13:31;;;;;;;8.05;3.63;;;;;;;-145.63;100.00;61273.97;4981583;28;20034;-66
2024/04/22 02:15:57;;;;;;;9.35;3.58;;;;;;;-145.63;100.00;61273.97;5001756;28;20026;-68
2024/04/22 02:18:23;;;;;;;8.38;2.90;;;;;;;-145.63;100.00;61273.97;4987930;28;20030;-71
2024/04/22 02:21:08;;;;;;;11.98;3.42;;;;;;;-145.63;100.00;61273.97;4981394;28;20106;-70
2024/04/22 02:23:34;;;;;;;5.97;2.90;;;;;;;-145.63;100.00;61273.97;4973415;28;20646;-69
2024/04/22 02:26:00;;;;;;;6.82;3.00;;;;;;;-145.63;100.00;61273.97;4988622;28;20685;-68
2024/04/22 02:28:26;;;;;;;5.85;2.92;;;;;;;-145.63;100.00;61273.97;4982704;28;20122;-68
2024/04/22 02:30:52;;;;;;;5.40;3.20;;;;;;;-145.63;100.00;61273.97;4982145;28;20419;-68
2024/04/22 02:33:18;;;;;;;9.18;3.00;;;;;;;-145.63;100.00;61273.97;4980696;28;20033;-70
2024/04/22 02:35:43;;;;;;;10.45;3.08;;;;;;;-145.63;100.00;61273.97;4985206;28;20101;-69
2024/04/22 02:38:09;;;;;;;5.57;3.00;;;;;;;-145.63;100.00;61273.97;4977426;28;20577;-66
2024/04/22 02:40:34;;;;;;;5.47;2.63;;;;;;;-145.63;100.00;61273.97;4984852;28;20088;-66
2024/04/22 02:43:00;;;;;;;10.30;3.63;;;;;;;-145.63;100.00;61273.97;4984812;28;20041;-66
2024/04/22 02:45:28;;;;;;;7.57;3.08;;;;;;;-145.63;100.00;61273.97;4980200;28;20030;-66
2024/04/22 02:47:53;;;;;;;6.15;2.97;;;;;;;-145.63;100.00;61273.97;4985420;28;20064;-65
2024/04/22 02:50:19;;;;;;;7.57;3.58;;;;;;;-145.63;100.00;61273.97;4978634;28;20034;-68
2024/04/22 02:52:44;;;;;;;7.32;3.60;;;;;;;-145.63;100.00;61273.97;4972119;28;20101;-67
2024/04/22 02:55:10;;;;;;;6.20;3.20;;;;;;;-145.63;100.00;61273.97;4992841;28;20052;-66
2024/04/22 02:57:38;;;;;;;7.85;3.15;;;;;;;-145.63;100.00;61273.97;4981439;28;20464;-70
2024/04/22 03:00:05;;;;;;;8.80;3.10;;;;;;;-145.63;100.00;61273.97;4979697;28;20042;-67
2024/04/22 03:02:33;;;;;;;9.48;3.58;;;;;;;-145.63;100.00;61273.97;4978500;28;20120;-67
2024/04/22 03:04:59;;;;;;;8.50;3.78;;;;;;;-145.63;100.00;61273.97;4979606;28;20105;-67
2024/04/22 03:07:27;;;;;;;9.88;3.38;;;;;;;-145.63;100.00;61273.97;4979702;28;20102;-68
2024/04/22 03:09:52;;;;;;;11.32;4.03;;;;;;;-145.63;100.00;61273.97;4980746;28;20031;-69
2024/04/22 03:12:18;;;;;;;9.40;3.53;;;;;;;-145.63;100.00;61273.97;4982619;28;20042;-68
2024/04/22 03:14:44;;;;;;;6.30;3.30;;;;;;;-145.63;100.00;61273.97;4980350;28;20050;-68
2024/04/22 03:17:10;;;;;;;9.38;3.17;;;;;;;-145.63;100.00;61273.97;4986711;28;20113;-68
2024/04/22 03:19:35;;;;;;;8.65;3.53;;;;;;;-145.63;100.00;61273.97;4979635;28;20022;-68
2024/04/22 03:22:01;;;;;;;7.75;3.58;;;;;;;-145.63;100.00;61273.97;4988233;28;20027;-68
2024/04/22 03:24:27;;;;;;;12.88;3.65;;;;;;;-145.63;100.00;61273.97;4984470;28;20033;-69
2024/04/22 03:26:53;;;;;;;8.60;3.65;;;;;;;-145.63;100.00;61273.97;4981469;28;20448;-69
2024/04/22 03:29:18;;;;;;;9.57;4.00;;;;;;;-145.63;100.00;61273.97;4980848;28;20677;-70
2024/04/22 03:31:44;;;;;;;10.43;3.60;;;;;;;-145.63;100.00;61273.97;4985191;28;20411;-68
2024/04/22 03:34:09;;;;;;;6.18;3.95;;;;;;;-145.63;100.00;61273.97;4979931;28;20464;-71
2024/04/22 03:36:35;;;;;;;12.32;3.80;;;;;;;-145.63;100.00;61273.97;4977100;28;20037;-70
2024/04/22 03:39:01;;;;;;;8.43;3.45;;;;;;;-145.63;100.00;61273.97;4979004;28;20041;-69
2024/04/22 03:41:29;;;;;;;7.93;3.47;;;;;;;-145.63;100.00;61273.97;5000088;28;20046;-70
2024/04/22 03:43:55;;;;;;;11.48;3.95;;;;;;;-145.63;100.00;61273.97;4983518;28;20450;-67
2024/04/22 03:51:49;;;;;;;8.10;3.75;;;;;;;-145.63;100.00;61273.97;4981764;28;20042;-68
2024/04/22 03:54:15;;;;;;;9.20;3.80;;;;;;;-145.63;100.00;61273.97;4982694;28;20415;-68
2024/04/22 03:56:41;;;;;;;10.70;3.25;;;;;;;-145.63;100.00;61273.97;4983483;28;20102;-70
2024/04/22 03:59:07;;;;;;;8.88;4.20;;;;;;;-145.63;100.00;61273.97;4986427;28;20179;-68
2024/04/22 04:01:33;;;;;;;9.60;3.95;;;;;;;-145.63;100.00;61273.97;4985462;28;20435;-68
2024/04/22 04:03:59;;;;;;;9.30;3.70;;;;;;;-145.63;100.00;61273.97;4983191;28;20039;-69
2024/04/22 04:06:28;;;;;;;7.93;3.67;;;;;;;-145.63;100.00;61273.97;4983053;28;20464;-74
2024/04/22 04:08:54;;;;;;;6.93;3.97;;;;;;;-145.63;100.00;61273.97;4987644;28;20173;-67
2024/04/22 04:11:25;;;;;;;8.95;3.80;;;;;;;-145.63;100.00;61273.97;4987289;28;20577;-69
2024/04/22 04:13:51;;;;;;;11.75;4.18;;;;;;;-145.63;100.00;61273.97;4990930;28;20041;-68
2024/04/22 04:16:17;;;;;;;11.65;4.25;;;;;;;-145.63;100.00;61273.97;4986387;28;20034;-71
2024/04/22 04:18:42;;;;;;;14.07;4.45;;;;;;;-145.63;100.00;61273.97;4974877;28;20070;-69
2024/04/22 04:21:08;;;;;;;11.10;4.45;;;;;;;-145.63;100.00;61273.97;4981955;28;20464;-69
2024/04/22 04:23:34;;;;;;;11.32;3.92;;;;;;;-145.63;100.00;61273.97;4983865;28;20031;-68
2024/04/22 04:26:01;;;;;;;13.25;4.55;;;;;;;-145.63;100.00;61273.97;4980805;28;20054;-69
2024/04/22 04:28:27;;;;;;;14.90;4.60;;;;;;;-145.63;100.00;61273.97;4981125;28;20034;-72
2024/04/22 04:30:57;;;;;;;15.88;4.32;;;;;;;-145.63;100.00;61273.97;4984353;28;20026;-66
2024/04/22 04:33:23;;;;;;;10.65;4.40;;;;;;;-145.63;100.00;61273.97;4984971;28;20435;-69
2024/04/22 04:36:04;;;;;;;13.30;4.30;;;;;;;-145.63;100.00;61273.97;4987518;28;20034;-70
2024/04/22 04:38:30;;;;;;;13.20;4.45;;;;;;;-145.63;100.00;61273.97;4980302;28;20030;-71
2024/04/22 04:40:57;;;;;;;9.40;4.60;;;;;;;-145.63;100.00;61273.97;4975103;28;20026;-67
2024/04/22 04:43:22;;;;;;;11.60;4.80;;;;;;;-145.63;100.00;61273.97;4979383;28;20035;-68
2024/04/22 04:45:50;;;;;;;8.27;4.20;;;;;;;-145.63;100.00;61273.97;4978207;28;20026;-68
2024/04/22 04:48:15;;;;;;;7.60;4.20;;;;;;;-145.63;100.00;61273.97;4988967;28;20029;-68
2024/04/22 04:50:42;;;;;;;12.77;5.07;;;;;;;-145.63;100.00;61273.97;4994672;28;20031;-71
2024/04/22 04:53:07;;;;;;;10.52;5.05;;;;;;;-145.63;100.00;61273.97;4984560;28;20031;-69
2024/04/22 04:55:33;;;;;;;9.60;4.55;;;;;;;-145.63;100.00;61273.97;4982371;28;20030;-68
2024/04/22 04:57:59;;;;;;;10.88;4.43;;;;;;;-145.63;100.00;61273.97;4986625;28;20117;-71
2024/04/22 05:00:24;;;;;;;15.05;5.25;;;;;;;-145.63;100.00;61273.97;4984323;28;20042;-71
2024/04/22 05:02:50;;;;;;;15.82;4.72;;;;;;;-145.63;100.00;61273.97;4982411;28;20483;-69
2024/04/22 05:05:16;;;;;;;16.15;5.38;;;;;;;-145.63;100.00;61273.97;4982599;28;20039;-70
2024/04/22 05:07:42;;;;;;;9.27;4.93;;;;;;;-145.63;100.00;61273.97;4980057;28;20027;-69
2024/04/22 05:10:10;;;;;;;10.57;4.60;;;;;;;-145.63;100.00;61273.97;4981395;28;20029;-68
2024/04/22 05:12:36;;;;;;;12.18;4.88;;;;;;;-145.63;100.00;61273.97;4980853;28;20110;-72
2024/04/22 05:15:02;;;;;;;11.10;4.60;;;;;;;-145.63;100.00;61273.97;4983059;28;20117;-70
2024/04/22 05:17:30;;;;;;;14.90;4.95;;;;;;;-145.63;100.00;61273.97;4975776;28;20082;-68
2024/04/22 05:19:56;;;;;;;15.75;5.53;;;;;;;-145.63;100.00;61273.97;4982206;28;20035;-70
2024/04/22 05:22:22;;;;;;;12.18;5.50;;;;;;;-145.63;100.00;61273.97;4984490;28;20034;-68
2024/04/22 05:24:48;;;;;;;9.30;4.85;;;;;;;-145.63;100.00;61273.97;4979967;28;20377;-69
2024/04/22 05:27:13;;;;;;;12.70;5.47;;;;;;;-145.63;100.00;61273.97;4986529;28;20126;-70
2024/04/22 05:29:39;;;;;;;12.73;5.28;;;;;;;-145.63;100.00;61273.97;4982556;28;20073;-70
2024/04/22 05:32:05;;;;;;;13.52;5.20;;;;;;;-145.63;100.00;61273.97;4974739;28;20058;-69
2024/04/22 05:37:18;;;;;;;11.48;5.00;;;;;;;-145.63;100.00;61273.97;4983782;28;20027;-70
2024/04/22 05:39:43;;;;;;;11.25;5.20;;;;;;;-145.63;100.00;61273.97;4985014;28;20034;-68
2024/04/22 05:42:09;;;;;;;14.10;5.13;;;;;;;-145.63;100.00;61273.97;4982341;28;20034;-68
2024/04/22 05:44:35;;;;;;;14.52;5.07;;;;;;;-145.63;100.00;61273.97;4980169;28;20376;-72
2024/04/22 05:47:01;;;;;;;9.15;5.38;;;;;;;-145.63;100.00;61273.97;4979800;28;20041;-73
2024/04/22 05:49:30;;;;;;;14.63;6.75;;;;;;;-145.63;100.00;61273.97;4977601;28;20125;-70
2024/04/22 05:51:55;;;;;;;14.68;4.95;;;;;;;-145.63;100.00;61273.97;4984702;28;20044;-69
2024/04/22 05:54:21;;;;;;;12.60;5.40;;;;;;;-145.63;100.00;61273.97;4977518;28;20030;-70
2024/04/22 05:56:47;;;;;;;12.23;4.95;;;;;;;-145.63;100.00;61273.97;4986279;28;20047;-68
2024/04/22 05:59:16;;;;;;;11.75;4.47;;;;;;;-145.63;100.00;61273.97;4980613;28;20054;-68
2024/04/22 06:01:42;;;;;;;12.85;5.20;;;;;;;-145.63;100.00;61273.97;4983870;28;20046;-70
2024/04/22 06:04:08;;;;;;;14.60;5.30;;;;;;;-145.63;100.00;61273.97;4980487;28;20031;-70
2024/04/22 06:06:36;;;;;;;11.98;5.50;;;;;;;-145.63;100.00;61273.97;4975792;28;20676;-70
2024/04/22 06:09:06;;;;;;;13.48;4.70;;;;;;;-145.63;100.00;61273.97;4980883;28;20039;-69
2024/04/22 06:11:33;;;;;;;16.00;4.70;;;;;;;-145.63;100.00;61273.97;4985242;28;20030;-70
2024/04/22 06:14:04;;;;;;;10.43;4.60;;;;;;;-145.63;100.00;61273.97;4982586;28;20043;-74
2024/04/22 06:16:31;;;;;;;9.35;4.32;;;;;;;-145.63;100.00;61273.97;4980747;28;20050;-70
2024/04/22 06:18:58;;;;;;;15.65;4.90;;;;;;;-145.63;100.00;61273.97;4981016;28;20046;-69
2024/04/22 06:21:24;;;;;;;14.98;4.95;;;;;;;-145.63;100.00;61273.97;4978269;28;20787;-70
2024/04/22 06:23:51;;;;;;;10.98;4.38;;;;;;;-145.63;100.00;61273.97;4979600;28;20107;-71
2024/04/22 06:26:19;;;;;;;15.32;5.05;;;;;;;-145.63;100.00;61273.97;4982501;28;20118;-66
2024/04/22 06:28:45;;;;;;;11.15;5.35;;;;;;;-145.63;100.00;61273.97;4983181;28;20054;-66
2024/04/22 06:31:11;;;;;;;9.63;4.60;;;;;;;-145.63;100.00;61273.97;4979907;28;20030;-66
2024/04/22 06:33:40;;;;;;;12.52;4.75;;;;;;;-145.63;100.00;61273.97;4980440;28;20730;-70
2024/04/22 06:36:07;;;;;;;16.25;5.20;;;;;;;-145.63;100.00;61273.97;4980628;28;20034;-68
2024/04/22 06:38:36;;;;;;;17.52;5.47;;;;;;;-145.63;100.00;61273.97;4980864;28;20030;-68
2024/04/22 06:41:03;;;;;;;12.05;4.60;;;;;;;-145.63;100.00;61273.97;4977620;28;20054;-70
2024/04/22 06:43:29;;;;;;;14.45;4.32;;;;;;;-145.63;100.00;61273.97;4978425;28;20054;-68
2024/04/22 06:45:54;;;;;;;67.53;8.20;;;;;;;-145.63;100.00;61273.97;4983092;28;20526;-68
2024/04/22 06:48:20;;;;;;;10.32;3.58;;;;;;;-145.63;100.00;61273.97;4984658;28;20062;-67
2024/04/22 06:50:47;;;;;;;15.63;4.93;;;;;;;-145.63;100.00;61273.97;4983943;28;20026;-71
2024/04/22 06:53:12;;;;;;;35.10;6.38;;;;;;;-145.63;100.00;61273.97;4985397;28;20045;-68
2024/04/22 06:55:38;;;;;;;10.65;4.38;;;;;;;-145.63;100.00;61273.97;4982438;28;20031;-65
2024/04/22 06:58:04;;;;;;;13.82;4.97;;;;;;;-145.63;100.00;61273.97;4982259;28;20046;-67
2024/04/22 07:00:30;;;;;;;14.55;5.15;;;;;;;-145.63;100.00;61273.97;4981813;28;20050;-66
2024/04/22 07:02:55;;;;;;;10.60;4.20;;;;;;;-145.63;100.00;61273.97;4985182;28;20049;-70
2024/04/22 07:05:21;;;;;;;10.13;4.75;;;;;;;-145.63;100.00;61273.97;4991382;28;20023;-67
2024/04/22 07:07:47;;;;;;;10.80;4.55;;;;;;;-145.63;100.00;61273.97;4989295;28;20492;-66
2024/04/22 07:10:13;;;;;;;14.20;4.85;;;;;;;-145.63;100.00;61273.97;4991323;28;20053;-67
2024/04/22 07:12:42;;;;;;;14.85;4.90;;;;;;;-145.63;100.00;61273.97;4991031;28;20034;-65
2024/04/22 07:15:08;;;;;;;16.50;5.05;;;;;;;-145.63;100.00;61273.97;4985172;28;20231;-67
2024/04/22 07:17:34;;;;;;;46.08;5.40;;;;;;;-145.63;100.00;61273.97;4983990;28;20037;-64
2024/04/22 07:20:00;;;;;;;8.30;4.10;;;;;;;-145.63;100.00;61273.97;4986593;28;20035;-65
2024/04/22 07:22:28;;;;;;;9.88;4.40;;;;;;;-145.63;100.00;61273.97;4975415;28;20038;-66
2024/04/22 07:24:55;;;;;;;8.50;4.20;;;;;;;-145.63;100.00;61273.97;4996799;28;20056;-71
2024/04/22 07:27:21;;;;;;;9.95;3.90;;;;;;;-145.63;100.00;61273.97;4984980;28;20411;-73
2024/04/22 07:29:47;;;;;;;14.30;4.07;;;;;;;-145.63;100.00;61273.97;4992663;28;20038;-69
2024/04/22 07:32:13;;;;;;;18.08;4.45;;;;;;;-145.63;100.00;61273.97;4989042;28;20376;-69
2024/04/22 07:34:40;;;;;;;15.50;3.95;;;;;;;-145.63;100.00;61273.97;4977199;28;20031;-65
2024/04/22 07:37:19;;;;;;;11.65;4.03;;;;;;;-145.63;100.00;61273.97;4981997;28;20472;-64
2024/04/22 07:39:47;;;;;;;12.85;4.53;;;;;;;-145.63;100.00;61273.97;4990348;28;20057;-62
2024/04/22 07:42:12;;;;;;;12.38;4.38;;;;;;;-145.63;100.00;61273.97;4985137;28;20061;-64
2024/04/22 07:44:38;;;;;;;16.48;4.47;;;;;;;-145.63;100.00;61273.97;4992840;28;20451;-64
2024/04/22 07:47:04;;;;;;;9.05;4.40;;;;;;;-145.63;100.00;61273.97;4986715;28;20045;-63
2024/04/22 07:49:29;;;;;;;10.77;4.47;;;;;;;-145.63;100.00;61273.97;4975559;28;20081;-63
2024/04/22 07:51:55;;;;;;;13.00;4.78;;;;;;;-145.63;100.00;61273.97;4986470;28;20042;-63
2024/04/22 07:54:21;;;;;;;10.88;4.63;;;;;;;-145.63;100.00;61273.97;4990572;28;20093;-64
2024/04/22 07:56:47;;;;;;;11.23;4.40;;;;;;;-145.63;100.00;61273.97;4986200;28;20047;-64
2024/04/22 07:59:14;;;;;;;14.25;4.30;;;;;;;-145.63;100.00;61273.97;4975522;28;20157;-62
2024/04/22 08:01:40;;;;;;;11.88;4.05;;;;;;;-145.63;100.00;61273.97;4983559;28;20118;-63
2024/04/22 08:04:08;;;;;;;10.90;3.90;;;;;;;-145.63;100.00;61273.97;4990936;28;20106;-64
2024/04/22 08:06:37;;;;;;;7.63;3.55;;;;;;;-145.63;100.00;61273.97;4985235;28;20166;-62
2024/04/22 08:09:06;;;;;;;10.60;3.58;;;;;;;-145.63;100.00;61273.97;4986521;28;20527;-64
2024/04/22 08:11:32;;;;;;;7.22;3.17;;;;;;;-145.63;100.00;61273.97;4975353;28;20023;-63
2024/04/22 08:13:59;;;;;;;7.38;2.65;;;;;;;-145.63;100.00;61273.97;4981054;28;20031;-63
2024/04/22 08:16:24;;;;;;;9.73;3.00;;;;;;;-145.63;100.00;61273.97;4988251;28;20128;-64
2024/04/22 08:18:50;;;;;;;17.67;3.78;;;;;;;-145.63;100.00;61273.97;5013564;28;20077;-63
2024/04/22 08:21:16;;;;;;;10.10;2.30;;;;;;;-145.63;100.00;61273.97;4987686;28;20502;-62
2024/04/22 08:23:43;;;;;;;6.40;2.58;;;;;;;-145.63;100.00;61273.97;4983834;28;20030;-62
2024/04/22 08:26:08;;;;;;;5.00;2.15;;;;;;;-145.63;100.00;61273.97;4984180;28;20041;-62
2024/04/22 08:28:34;;;;;;;5.85;2.33;;;;;;;-145.63;100.00;61273.97;4989019;28;20202;-62
2024/04/22 08:31:04;;;;;;;8.43;2.00;;;;;;;-145.63;100.00;61273.97;4988624;28;20031;-62
2024/04/22 08:33:30;;;;;;;9.57;2.28;;;;;;;-145.63;100.00;61273.97;4993783;28;20133;-62
2024/04/22 08:35:56;;;;;;;6.13;2.17;;;;;;;-145.63;100.00;61273.97;4983179;28;20043;-63
2024/04/22 08:38:23;;;;;;;9.15;2.38;;;;;;;-145.63;100.00;61273.97;4990974;28;20038;-62
2024/04/22 08:40:48;;;;;;;4.43;2.08;;;;;;;-145.63;100.00;61273.97;4984246;28;20490;-62
2024/04/22 08:43:15;;;;;;;6.85;2.08;;;;;;;-145.63;100.00;61273.97;4994621;28;20046;-64
2024/04/22 08:45:47;;;;;;;5.30;2.10;;;;;;;-145.63;100.00;61273.97;4989908;28;20495;-64
2024/04/22 08:48:13;;;;;;;3.60;2.00;;;;;;;-145.63;100.00;61273.97;4992639;28;20450;-65
2024/04/22 08:50:40;;;;;;;5.88;2.10;;;;;;;-145.63;100.00;61273.97;4994203;28;20044;-64
2024/04/22 08:53:11;;;;;;;7.07;2.25;;;;;;;-145.63;100.00;61273.97;4975744;28;20073;-63
2024/04/22 08:55:37;;;;;;;8.45;2.20;;;;;;;-145.63;100.00;61273.97;4978582;28;20042;-63
2024/04/22 08:58:04;;;;;;;6.22;2.45;;;;;;;-145.63;100.00;61273.97;4979682;28;20129;-65
2024/04/22 09:00:30;;;;;;;7.55;1.92;;;;;;;-145.63;100.00;61273.97;4980192;28;20116;-61
2024/04/22 09:02:56;;;;;;;7.45;2.28;;;;;;;-145.63;100.00;61273.97;4979043;28;20046;-64
2024/04/22 09:05:23;;;;;;;5.40;2.60;;;;;;;-145.63;100.00;61273.97;4984541;28;20140;-63
2024/04/22 09:07:53;;;;;;;6.25;2.33;;;;;;;-145.63;100.00;61273.97;4992072;28;20439;-63
2024/04/22 09:10:27;;;;;;;5.88;2.10;;;;;;;-145.63;100.00;61273.97;4981159;28;20030;-65
2024/04/22 09:12:57;;;;;;;7.05;2.35;;;;;;;-145.63;100.00;61273.97;4983469;28;20023;-63
2024/04/22 09:15:22;;;;;;;8.43;2.45;;;;;;;-145.63;100.00;61273.97;4982039;28;20049;-63
2024/04/22 09:17:48;;;;;;;8.07;2.63;;;;;;;-145.63;100.00;61273.97;4993478;28;20026;-64
2024/04/22 09:20:33;;;;;;;7.80;2.30;;;;;;;-145.63;100.00;61273.97;4993782;28;20034;-64
2024/04/22 09:22:59;;;;;;;6.55;2.60;;;;;;;-145.63;100.00;61273.97;4982901;28;20058;-63
2024/04/22 09:25:26;;;;;;;8.00;2.60;;;;;;;-145.63;100.00;61273.97;4999525;28;20136;-63
2024/04/22 09:27:52;;;;;;;7.88;2.40;;;;;;;-145.63;100.00;61273.97;4984933;28;20081;-64
2024/04/22 09:30:21;;;;;;;11.65;3.15;;;;;;;-145.63;100.00;61273.97;4978573;28;20033;-64
2024/04/22 09:32:48;;;;;;;6.90;2.70;;;;;;;-145.63;100.00;61273.97;4993805;28;20344;-64
2024/04/22 09:35:13;;;;;;;4.53;2.22;;;;;;;-145.63;100.00;61273.97;4993520;28;20089;-63
2024/04/22 09:37:41;;;;;;;6.82;2.28;;;;;;;-145.63;100.00;61273.97;4993373;28;20046;-64
2024/04/22 09:40:09;;;;;;;5.50;2.20;;;;;;;-145.63;100.00;61273.97;4982461;28;20367;-64
2024/04/22 09:42:36;;;;;;;9.30;2.33;;;;;;;-145.63;100.00;61273.97;4987745;28;20030;-63
2024/04/22 09:45:04;;;;;;;6.22;2.40;;;;;;;-145.63;100.00;61273.97;4990570;28;20042;-64
2024/04/22 09:47:31;;;;;;;4.00;1.90;;;;;;;-145.63;100.00;61273.97;4985459;28;20038;-63
2024/04/22 09:49:59;;;;;;;6.93;2.63;;;;;;;-145.63;100.00;61273.97;4980248;28;20094;-63
2024/04/22 09:52:26;;;;;;;6.97;2.10;;;;;;;-145.63;100.00;61273.97;4982631;28;20045;-64
2024/04/22 09:54:52;;;;;;;4.78;1.80;;;;;;;-145.63;100.00;61273.97;4983186;28;20091;-64
2024/04/22 09:57:19;;;;;;;7.57;1.92;;;;;;;-145.63;100.00;61273.97;4977478;28;20364;-64
2024/04/22 09:59:45;;;;;;;3.55;1.85;;;;;;;-145.63;100.00;61273.97;4993341;28;20050;-64
2024/04/22 10:02:11;;;;;;;3.97;2.00;;;;;;;-145.63;100.00;61273.97;4990199;28;20043;-63
2024/04/22 10:04:36;;;;;;;7.80;2.58;;;;;;;-145.63;100.00;61273.97;4984861;28;20039;-63
2024/04/22 10:07:02;;;;;;;7.13;2.30;;;;;;;-145.63;100.00;61273.97;4985261;28;20383;-64
2024/04/22 10:09:28;;;;;;;9.07;2.00;;;;;;;-145.63;100.00;61273.97;4978894;28;20401;-64
2024/04/22 10:11:54;;;;;;;6.75;1.95;;;;;;;-145.63;100.00;61273.97;4984515;28;20062;-64
2024/04/22 10:14:20;;;;;;;5.78;1.85;;;;;;;-145.63;100.00;61273.97;4988024;28;20038;-63
2024/04/22 10:16:54;;;;;;;4.13;2.00;;;;;;;-145.63;100.00;61273.97;4988429;28;20170;-63
2024/04/22 10:19:20;;;;;;;4.82;2.17;;;;;;;-145.63;100.00;61273.97;4976352;28;20101;-64
2024/04/22 10:21:51;;;;;;;8.15;2.13;;;;;;;-145.63;100.00;61273.97;4984133;28;20170;-62
2024/04/22 10:24:36;;;;;;;8.68;2.47;;;;;;;-145.63;100.00;61273.97;4973748;28;20035;-62
2024/04/22 10:27:09;;;;;;;8.18;2.10;;;;;;;-145.63;100.00;61273.97;4981169;28;20062;-63
2024/04/22 10:29:36;;;;;;;5.53;2.30;;;;;;;-145.63;100.00;61273.97;4992719;28;20086;-63
2024/04/22 10:32:02;;;;;;;8.95;2.25;;;;;;;-145.63;100.00;61273.97;4986078;28;20042;-66
2024/04/22 10:34:28;;;;;;;6.60;2.03;;;;;;;-145.63;100.00;61273.97;4976546;28;20068;-62
2024/04/22 10:36:54;;;;;;;3.58;2.30;;;;;;;-145.63;100.00;61273.97;4981145;28;20034;-62
2024/04/22 10:39:20;;;;;;;4.47;2.20;;;;;;;-145.63;100.00;61273.97;4977128;28;20064;-63
2024/04/22 10:41:46;;;;;;;6.07;2.35;;;;;;;-145.63;100.00;61273.97;4979122;28;20058;-64
2024/04/22 10:44:11;;;;;;;4.60;2.50;;;;;;;-145.63;100.00;61273.97;4982862;28;20035;-63
2024/04/22 10:46:38;;;;;;;9.13;2.63;;;;;;;-145.63;100.00;61273.97;4987072;28;20168;-62
2024/04/22 10:49:07;;;;;;;4.53;2.47;;;;;;;-145.63;100.00;61273.97;4983351;28;20026;-64
2024/04/22 10:51:33;;;;;;;6.88;2.53;;;;;;;-145.63;100.00;61273.97;4999587;28;20026;-64
2024/04/22 10:53:59;;;;;;;7.40;2.75;;;;;;;-145.63;100.00;61273.97;4986974;28;20458;-63
2024/04/22 10:56:25;;;;;;;7.13;2.50;;;;;;;-145.63;100.00;61273.97;4972266;28;20504;-63
2024/04/22 10:58:52;;;;;;;7.13;2.45;;;;;;;-145.63;100.00;61273.97;4982314;28;20408;-63
2024/04/22 11:01:20;;;;;;;6.47;2.47;;;;;;;-145.63;100.00;61273.97;4980097;28;20039;-62
2024/04/22 11:03:46;;;;;;;7.60;3.13;;;;;;;-145.63;100.00;61273.97;4979857;28;20360;-63
2024/04/22 11:06:13;;;;;;;9.70;2.88;;;;;;;-145.63;100.00;61273.97;4989085;28;20590;-62
2024/04/22 11:08:43;;;;;;;7.80;3.10;;;;;;;-145.63;100.00;61273.97;4980379;28;20041;-63
2024/04/22 11:11:10;;;;;;;4.82;2.80;;;;;;;-145.63;100.00;61273.97;4979364;28;20038;-64
2024/04/22 11:13:37;;;;;;;6.70;2.95;;;;;;;-145.63;100.00;61273.97;4986491;28;20062;-62